sensor_id;sensor_type;location;lat;lon;timestamp;P1;durP1;ratioP1;P2;durP2;ratioP2
78072;SDS011;67281;48.770;11.440;2024-01-15T00:00:22;12.77;;;6.33;;
78072;SDS011;67281;48.770;11.440;2024-01-15T00:02:49;17.23;;;10.43;;
78072;SDS011;67281;48.770;11.440;2024-01-15T00:05:16;35.00;;;21.57;;
78072;SDS011;67281;48.770;11.440;2024-01-15T00:07:42;37.33;;;22.90;;
78072;SDS011;67281;48.770;11.440;2024-01-15T00:10:09;36.90;;;25.77;;
78072;SDS011;67281;48.770;11.440;2024-01-15T00:12:36;36.20;;;26.00;;
78072;SDS011;67281;48.770;11.440;2024-01-15T00:15:03;36.07;;;23.70;;
78072;SDS011;67281;48.770;11.440;2024-01-15T00:17:31;37.30;;;22.73;;
78072;SDS011;67281;48.770;11.440;2024-01-15T00:19:58;38.13;;;24.27;;
78072;SDS011;67281;48.770;11.440;2024-01-15T00:22:25;39.03;;;26.30;;
78072;SDS011;67281;48.770;11.440;2024-01-15T00:24:53;40.47;;;26.53;;
78072;SDS011;67281;48.770;11.440;2024-01-15T00:27:21;40.70;;;28.87;;
78072;SDS011;67281;48.770;11.440;2024-01-15T00:29:48;34.53;;;19.50;;
78072;SDS011;67281;48.770;11.440;2024-01-15T00:32:17;36.50;;;21.70;;
78072;SDS011;67281;48.770;11.440;2024-01-15T00:34:43;37.53;;;21.50;;
78072;SDS011;67281;48.770;11.440;2024-01-15T00:37:10;39.87;;;26.27;;
78072;SDS011;67281;48.770;11.440;2024-01-15T00:39:37;35.87;;;26.60;;
78072;SDS011;67281;48.770;11.440;2024-01-15T00:42:04;35.43;;;20.87;;
78072;SDS011;67281;48.770;11.440;2024-01-15T00:44:31;34.83;;;23.13;;
78072;SDS011;67281;48.770;11.440;2024-01-15T00:46:58;23.77;;;12.37;;
78072;SDS011;67281;48.770;11.440;2024-01-15T00:49:26;33.00;;;19.07;;
78072;SDS011;67281;48.770;11.440;2024-01-15T00:51:54;21.93;;;12.50;;
78072;SDS011;67281;48.770;11.440;2024-01-15T00:54:20;33.30;;;20.77;;
78072;SDS011;67281;48.770;11.440;2024-01-15T00:56:47;33.40;;;20.77;;
78072;SDS011;67281;48.770;11.440;2024-01-15T00:59:14;31.17;;;18.87;;
78072;SDS011;67281;48.770;11.440;2024-01-15T01:01:42;31.67;;;18.10;;
78072;SDS011;67281;48.770;11.440;2024-01-15T01:04:10;34.30;;;18.80;;
78072;SDS011;67281;48.770;11.440;2024-01-15T01:06:37;34.90;;;19.93;;
78072;SDS011;67281;48.770;11.440;2024-01-15T01:09:04;32.73;;;18.33;;
78072;SDS011;67281;48.770;11.440;2024-01-15T01:11:31;32.50;;;17.87;;
78072;SDS011;67281;48.770;11.440;2024-01-15T01:13:58;31.83;;;17.13;;
78072;SDS011;67281;48.770;11.440;2024-01-15T01:16:25;30.83;;;15.10;;
78072;SDS011;67281;48.770;11.440;2024-01-15T01:18:52;34.63;;;18.27;;
78072;SDS011;67281;48.770;11.440;2024-01-15T01:21:19;30.97;;;16.67;;
78072;SDS011;67281;48.770;11.440;2024-01-15T01:23:46;31.50;;;16.87;;
78072;SDS011;67281;48.770;11.440;2024-01-15T01:26:16;33.80;;;18.93;;
78072;SDS011;67281;48.770;11.440;2024-01-15T01:28:43;27.30;;;13.67;;
78072;SDS011;67281;48.770;11.440;2024-01-15T01:31:10;33.33;;;19.67;;
78072;SDS011;67281;48.770;11.440;2024-01-15T01:33:38;31.23;;;16.63;;
78072;SDS011;67281;48.770;11.440;2024-01-15T01:36:07;30.63;;;17.60;;
78072;SDS011;67281;48.770;11.440;2024-01-15T01:38:36;23.90;;;12.30;;
78072;SDS011;67281;48.770;11.440;2024-01-15T01:41:04;32.23;;;17.93;;
78072;SDS011;67281;48.770;11.440;2024-01-15T01:43:31;29.53;;;16.00;;
78072;SDS011;67281;48.770;11.440;2024-01-15T01:45:58;29.73;;;15.33;;
78072;SDS011;67281;48.770;11.440;2024-01-15T01:48:26;28.33;;;15.57;;
78072;SDS011;67281;48.770;11.440;2024-01-15T01:50:54;26.90;;;13.80;;
78072;SDS011;67281;48.770;11.440;2024-01-15T01:53:27;32.23;;;18.13;;
78072;SDS011;67281;48.770;11.440;2024-01-15T01:55:55;28.40;;;17.70;;
78072;SDS011;67281;48.770;11.440;2024-01-15T01:58:23;26.97;;;15.20;;
78072;SDS011;67281;48.770;11.440;2024-01-15T02:00:52;28.17;;;15.03;;
78072;SDS011;67281;48.770;11.440;2024-01-15T02:03:20;30.50;;;18.17;;
78072;SDS011;67281;48.770;11.440;2024-01-15T02:05:47;25.10;;;13.93;;
78072;SDS011;67281;48.770;11.440;2024-01-15T02:08:16;27.50;;;14.30;;
78072;SDS011;67281;48.770;11.440;2024-01-15T02:10:43;29.03;;;16.13;;
78072;SDS011;67281;48.770;11.440;2024-01-15T02:13:10;26.03;;;12.37;;
78072;SDS011;67281;48.770;11.440;2024-01-15T02:15:37;19.57;;;10.63;;
78072;SDS011;67281;48.770;11.440;2024-01-15T02:18:04;23.80;;;13.67;;
78072;SDS011;67281;48.770;11.440;2024-01-15T02:20:34;27.57;;;14.93;;
78072;SDS011;67281;48.770;11.440;2024-01-15T02:23:08;29.20;;;17.43;;
78072;SDS011;67281;48.770;11.440;2024-01-15T02:25:40;24.30;;;12.73;;
78072;SDS011;67281;48.770;11.440;2024-01-15T02:28:09;26.97;;;16.27;;
78072;SDS011;67281;48.770;11.440;2024-01-15T02:30:37;22.43;;;14.27;;
78072;SDS011;67281;48.770;11.440;2024-01-15T02:33:07;24.37;;;15.20;;
78072;SDS011;67281;48.770;11.440;2024-01-15T02:35:35;28.57;;;15.73;;
78072;SDS011;67281;48.770;11.440;2024-01-15T02:38:03;30.93;;;16.90;;
78072;SDS011;67281;48.770;11.440;2024-01-15T02:40:31;26.90;;;15.80;;
78072;SDS011;67281;48.770;11.440;2024-01-15T02:42:58;28.13;;;12.70;;
78072;SDS011;67281;48.770;11.440;2024-01-15T02:45:24;27.90;;;15.50;;
78072;SDS011;67281;48.770;11.440;2024-01-15T02:47:51;27.77;;;16.77;;
78072;SDS011;67281;48.770;11.440;2024-01-15T02:50:18;26.90;;;14.53;;
78072;SDS011;67281;48.770;11.440;2024-01-15T02:52:48;27.10;;;15.30;;
78072;SDS011;67281;48.770;11.440;2024-01-15T02:55:15;25.67;;;14.77;;
78072;SDS011;67281;48.770;11.440;2024-01-15T02:57:42;19.77;;;11.13;;
78072;SDS011;67281;48.770;11.440;2024-01-15T03:00:09;24.00;;;13.27;;
78072;SDS011;67281;48.770;11.440;2024-01-15T03:02:36;24.00;;;14.50;;
78072;SDS011;67281;48.770;11.440;2024-01-15T03:05:09;25.63;;;15.10;;
78072;SDS011;67281;48.770;11.440;2024-01-15T03:07:36;26.27;;;16.03;;
78072;SDS011;67281;48.770;11.440;2024-01-15T03:10:04;24.53;;;15.57;;
78072;SDS011;67281;48.770;11.440;2024-01-15T03:12:32;28.23;;;15.30;;
78072;SDS011;67281;48.770;11.440;2024-01-15T03:14:59;22.63;;;13.27;;
78072;SDS011;67281;48.770;11.440;2024-01-15T03:17:26;28.93;;;15.90;;
78072;SDS011;67281;48.770;11.440;2024-01-15T03:19:53;26.50;;;15.00;;
78072;SDS011;67281;48.770;11.440;2024-01-15T03:22:20;26.00;;;15.23;;
78072;SDS011;67281;48.770;11.440;2024-01-15T03:24:47;24.30;;;14.30;;
78072;SDS011;67281;48.770;11.440;2024-01-15T03:27:14;23.10;;;14.73;;
78072;SDS011;67281;48.770;11.440;2024-01-15T03:29:41;24.60;;;15.87;;
78072;SDS011;67281;48.770;11.440;2024-01-15T03:32:08;24.97;;;18.53;;
78072;SDS011;67281;48.770;11.440;2024-01-15T03:34:34;23.03;;;13.97;;
78072;SDS011;67281;48.770;11.440;2024-01-15T03:37:02;20.17;;;12.93;;
78072;SDS011;67281;48.770;11.440;2024-01-15T03:39:28;25.80;;;18.07;;
78072;SDS011;67281;48.770;11.440;2024-01-15T03:41:55;21.03;;;12.47;;
78072;SDS011;67281;48.770;11.440;2024-01-15T03:44:22;25.73;;;15.93;;
78072;SDS011;67281;48.770;11.440;2024-01-15T03:46:49;26.20;;;15.20;;
78072;SDS011;67281;48.770;11.440;2024-01-15T03:49:16;25.57;;;15.20;;
78072;SDS011;67281;48.770;11.440;2024-01-15T03:51:44;24.70;;;13.77;;
78072;SDS011;67281;48.770;11.440;2024-01-15T03:54:11;24.60;;;14.57;;
78072;SDS011;67281;48.770;11.440;2024-01-15T03:56:38;21.90;;;12.20;;
78072;SDS011;67281;48.770;11.440;2024-01-15T03:59:05;22.87;;;11.63;;
78072;SDS011;67281;48.770;11.440;2024-01-15T04:01:31;20.07;;;13.13;;
78072;SDS011;67281;48.770;11.440;2024-01-15T04:03:58;21.70;;;13.00;;
78072;SDS011;67281;48.770;11.440;2024-01-15T04:06:25;21.43;;;12.03;;
78072;SDS011;67281;48.770;11.440;2024-01-15T04:08:52;19.47;;;11.13;;
78072;SDS011;67281;48.770;11.440;2024-01-15T04:11:19;21.03;;;13.40;;
78072;SDS011;67281;48.770;11.440;2024-01-15T04:13:46;17.33;;;10.47;;
78072;SDS011;67281;48.770;11.440;2024-01-15T04:16:13;22.00;;;12.67;;
78072;SDS011;67281;48.770;11.440;2024-01-15T04:18:40;19.43;;;12.93;;
78072;SDS011;67281;48.770;11.440;2024-01-15T04:21:07;18.40;;;11.53;;
78072;SDS011;67281;48.770;11.440;2024-01-15T04:23:34;18.23;;;12.37;;
78072;SDS011;67281;48.770;11.440;2024-01-15T04:26:00;18.50;;;10.97;;
78072;SDS011;67281;48.770;11.440;2024-01-15T04:28:27;17.17;;;10.63;;
78072;SDS011;67281;48.770;11.440;2024-01-15T04:30:54;16.70;;;9.37;;
78072;SDS011;67281;48.770;11.440;2024-01-15T04:33:21;19.53;;;10.40;;
78072;SDS011;67281;48.770;11.440;2024-01-15T04:35:49;19.37;;;11.23;;
78072;SDS011;67281;48.770;11.440;2024-01-15T04:38:15;15.80;;;9.47;;
78072;SDS011;67281;48.770;11.440;2024-01-15T04:40:42;18.10;;;11.90;;
78072;SDS011;67281;48.770;11.440;2024-01-15T04:43:09;17.77;;;11.03;;
78072;SDS011;67281;48.770;11.440;2024-01-15T04:45:36;18.73;;;12.50;;
78072;SDS011;67281;48.770;11.440;2024-01-15T04:48:03;17.83;;;12.07;;
78072;SDS011;67281;48.770;11.440;2024-01-15T04:50:30;18.83;;;10.43;;
78072;SDS011;67281;48.770;11.440;2024-01-15T04:52:57;16.70;;;9.80;;
78072;SDS011;67281;48.770;11.440;2024-01-15T04:55:24;17.03;;;8.93;;
78072;SDS011;67281;48.770;11.440;2024-01-15T04:57:51;17.00;;;10.07;;
78072;SDS011;67281;48.770;11.440;2024-01-15T05:00:18;15.03;;;8.77;;
78072;SDS011;67281;48.770;11.440;2024-01-15T05:02:46;16.40;;;10.07;;
78072;SDS011;67281;48.770;11.440;2024-01-15T05:05:12;13.97;;;8.67;;
78072;SDS011;67281;48.770;11.440;2024-01-15T05:07:40;14.67;;;9.40;;
78072;SDS011;67281;48.770;11.440;2024-01-15T05:10:06;15.43;;;10.60;;
78072;SDS011;67281;48.770;11.440;2024-01-15T05:12:34;13.30;;;7.43;;
78072;SDS011;67281;48.770;11.440;2024-01-15T05:15:01;13.20;;;7.80;;
78072;SDS011;67281;48.770;11.440;2024-01-15T05:17:28;15.07;;;8.73;;
78072;SDS011;67281;48.770;11.440;2024-01-15T05:19:55;16.27;;;9.97;;
78072;SDS011;67281;48.770;11.440;2024-01-15T05:22:22;14.30;;;10.33;;
78072;SDS011;67281;48.770;11.440;2024-01-15T05:24:51;15.07;;;8.77;;
78072;SDS011;67281;48.770;11.440;2024-01-15T05:27:18;16.40;;;8.97;;
78072;SDS011;67281;48.770;11.440;2024-01-15T05:29:45;13.80;;;8.17;;
78072;SDS011;67281;48.770;11.440;2024-01-15T05:32:12;15.50;;;9.87;;
78072;SDS011;67281;48.770;11.440;2024-01-15T05:34:38;11.97;;;7.60;;
78072;SDS011;67281;48.770;11.440;2024-01-15T05:37:05;14.43;;;8.67;;
78072;SDS011;67281;48.770;11.440;2024-01-15T05:39:32;13.47;;;8.20;;
78072;SDS011;67281;48.770;11.440;2024-01-15T05:41:59;13.77;;;8.13;;
78072;SDS011;67281;48.770;11.440;2024-01-15T05:44:27;14.43;;;9.03;;
78072;SDS011;67281;48.770;11.440;2024-01-15T05:46:54;14.30;;;8.23;;
78072;SDS011;67281;48.770;11.440;2024-01-15T05:49:21;13.50;;;7.73;;
78072;SDS011;67281;48.770;11.440;2024-01-15T05:51:48;12.53;;;7.83;;
78072;SDS011;67281;48.770;11.440;2024-01-15T05:54:15;12.50;;;7.87;;
78072;SDS011;67281;48.770;11.440;2024-01-15T05:56:42;12.83;;;7.17;;
78072;SDS011;67281;48.770;11.440;2024-01-15T05:59:09;11.87;;;8.07;;
78072;SDS011;67281;48.770;11.440;2024-01-15T06:01:40;13.80;;;9.40;;
78072;SDS011;67281;48.770;11.440;2024-01-15T06:04:07;12.37;;;8.60;;
78072;SDS011;67281;48.770;11.440;2024-01-15T06:06:34;12.53;;;7.87;;
78072;SDS011;67281;48.770;11.440;2024-01-15T06:09:01;13.03;;;7.37;;
78072;SDS011;67281;48.770;11.440;2024-01-15T06:11:32;11.53;;;6.70;;
78072;SDS011;67281;48.770;11.440;2024-01-15T06:13:59;12.67;;;6.97;;
78072;SDS011;67281;48.770;11.440;2024-01-15T06:16:27;13.33;;;8.00;;
78072;SDS011;67281;48.770;11.440;2024-01-15T06:18:54;12.37;;;7.23;;
78072;SDS011;67281;48.770;11.440;2024-01-15T06:21:21;11.63;;;8.57;;
78072;SDS011;67281;48.770;11.440;2024-01-15T06:23:48;13.33;;;7.37;;
78072;SDS011;67281;48.770;11.440;2024-01-15T06:26:15;10.07;;;5.80;;
78072;SDS011;67281;48.770;11.440;2024-01-15T06:28:42;13.13;;;7.33;;
78072;SDS011;67281;48.770;11.440;2024-01-15T06:31:09;12.07;;;7.83;;
78072;SDS011;67281;48.770;11.440;2024-01-15T06:33:36;10.90;;;6.87;;
78072;SDS011;67281;48.770;11.440;2024-01-15T06:36:03;12.47;;;8.30;;
78072;SDS011;67281;48.770;11.440;2024-01-15T06:38:31;10.83;;;6.63;;
78072;SDS011;67281;48.770;11.440;2024-01-15T06:40:59;13.73;;;8.73;;
78072;SDS011;67281;48.770;11.440;2024-01-15T06:43:25;12.40;;;6.67;;
78072;SDS011;67281;48.770;11.440;2024-01-15T06:45:52;10.80;;;8.47;;
78072;SDS011;67281;48.770;11.440;2024-01-15T06:48:19;12.70;;;7.17;;
78072;SDS011;67281;48.770;11.440;2024-01-15T06:50:46;12.23;;;6.87;;
78072;SDS011;67281;48.770;11.440;2024-01-15T06:53:13;11.93;;;7.03;;
78072;SDS011;67281;48.770;11.440;2024-01-15T06:55:40;11.83;;;6.67;;
78072;SDS011;67281;48.770;11.440;2024-01-15T06:58:07;13.17;;;7.67;;
78072;SDS011;67281;48.770;11.440;2024-01-15T07:00:34;12.27;;;7.83;;
78072;SDS011;67281;48.770;11.440;2024-01-15T07:03:01;10.73;;;6.23;;
78072;SDS011;67281;48.770;11.440;2024-01-15T07:05:28;10.60;;;6.53;;
78072;SDS011;67281;48.770;11.440;2024-01-15T07:07:56;9.97;;;5.90;;
78072;SDS011;67281;48.770;11.440;2024-01-15T07:10:23;11.67;;;5.93;;
78072;SDS011;67281;48.770;11.440;2024-01-15T07:12:50;11.13;;;6.47;;
78072;SDS011;67281;48.770;11.440;2024-01-15T07:15:17;13.33;;;8.03;;
78072;SDS011;67281;48.770;11.440;2024-01-15T07:17:44;11.93;;;7.23;;
78072;SDS011;67281;48.770;11.440;2024-01-15T07:20:11;11.30;;;6.73;;
78072;SDS011;67281;48.770;11.440;2024-01-15T07:22:38;11.27;;;7.07;;
78072;SDS011;67281;48.770;11.440;2024-01-15T07:25:05;10.50;;;7.37;;
78072;SDS011;67281;48.770;11.440;2024-01-15T07:27:33;12.63;;;6.60;;
78072;SDS011;67281;48.770;11.440;2024-01-15T07:30:00;12.00;;;8.00;;
78072;SDS011;67281;48.770;11.440;2024-01-15T07:32:28;12.20;;;6.93;;
78072;SDS011;67281;48.770;11.440;2024-01-15T07:34:55;12.23;;;6.67;;
78072;SDS011;67281;48.770;11.440;2024-01-15T07:37:23;12.20;;;7.03;;
78072;SDS011;67281;48.770;11.440;2024-01-15T07:39:50;11.47;;;7.67;;
78072;SDS011;67281;48.770;11.440;2024-01-15T07:42:17;11.20;;;6.43;;
78072;SDS011;67281;48.770;11.440;2024-01-15T07:44:44;11.77;;;6.90;;
78072;SDS011;67281;48.770;11.440;2024-01-15T07:47:11;11.33;;;6.27;;
78072;SDS011;67281;48.770;11.440;2024-01-15T07:49:38;11.17;;;6.30;;
78072;SDS011;67281;48.770;11.440;2024-01-15T07:52:05;12.93;;;7.70;;
78072;SDS011;67281;48.770;11.440;2024-01-15T07:54:32;12.30;;;6.93;;
78072;SDS011;67281;48.770;11.440;2024-01-15T07:57:01;10.27;;;6.40;;
78072;SDS011;67281;48.770;11.440;2024-01-15T07:59:31;11.97;;;7.73;;
78072;SDS011;67281;48.770;11.440;2024-01-15T08:01:58;11.40;;;6.53;;
78072;SDS011;67281;48.770;11.440;2024-01-15T08:04:26;11.70;;;6.90;;
78072;SDS011;67281;48.770;11.440;2024-01-15T08:06:54;11.27;;;6.77;;
78072;SDS011;67281;48.770;11.440;2024-01-15T08:09:21;10.67;;;7.03;;
78072;SDS011;67281;48.770;11.440;2024-01-15T08:11:48;12.80;;;7.40;;
78072;SDS011;67281;48.770;11.440;2024-01-15T08:14:16;12.17;;;7.37;;
78072;SDS011;67281;48.770;11.440;2024-01-15T08:16:42;12.57;;;6.73;;
78072;SDS011;67281;48.770;11.440;2024-01-15T08:19:10;12.67;;;6.63;;
78072;SDS011;67281;48.770;11.440;2024-01-15T08:21:37;12.30;;;6.60;;
78072;SDS011;67281;48.770;11.440;2024-01-15T08:24:04;10.65;;;6.65;;
78072;SDS011;67281;48.770;11.440;2024-01-15T08:26:32;11.20;;;6.13;;
78072;SDS011;67281;48.770;11.440;2024-01-15T08:28:59;10.87;;;6.97;;
78072;SDS011;67281;48.770;11.440;2024-01-15T08:31:26;13.43;;;6.63;;
78072;SDS011;67281;48.770;11.440;2024-01-15T08:33:54;12.37;;;6.87;;
78072;SDS011;67281;48.770;11.440;2024-01-15T08:36:22;11.57;;;7.20;;
78072;SDS011;67281;48.770;11.440;2024-01-15T08:38:54;10.50;;;6.40;;
78072;SDS011;67281;48.770;11.440;2024-01-15T08:41:21;11.13;;;6.87;;
78072;SDS011;67281;48.770;11.440;2024-01-15T08:43:48;11.67;;;5.97;;
78072;SDS011;67281;48.770;11.440;2024-01-15T08:46:15;10.27;;;5.77;;
78072;SDS011;67281;48.770;11.440;2024-01-15T08:48:42;10.60;;;6.73;;
78072;SDS011;67281;48.770;11.440;2024-01-15T08:51:09;11.57;;;6.77;;
78072;SDS011;67281;48.770;11.440;2024-01-15T08:53:36;11.07;;;7.27;;
78072;SDS011;67281;48.770;11.440;2024-01-15T08:56:02;10.57;;;6.27;;
78072;SDS011;67281;48.770;11.440;2024-01-15T08:58:29;9.77;;;6.60;;
78072;SDS011;67281;48.770;11.440;2024-01-15T09:00:56;11.17;;;6.03;;
78072;SDS011;67281;48.770;11.440;2024-01-15T09:03:23;10.10;;;6.13;;
78072;SDS011;67281;48.770;11.440;2024-01-15T09:05:50;8.87;;;5.23;;
78072;SDS011;67281;48.770;11.440;2024-01-15T09:08:17;8.93;;;5.17;;
78072;SDS011;67281;48.770;11.440;2024-01-15T09:10:44;7.60;;;4.80;;
78072;SDS011;67281;48.770;11.440;2024-01-15T09:13:12;10.00;;;6.80;;
78072;SDS011;67281;48.770;11.440;2024-01-15T09:15:39;11.53;;;5.50;;
78072;SDS011;67281;48.770;11.440;2024-01-15T09:18:06;9.27;;;5.37;;
78072;SDS011;67281;48.770;11.440;2024-01-15T09:20:34;9.17;;;5.37;;
78072;SDS011;67281;48.770;11.440;2024-01-15T09:23:01;10.00;;;5.30;;
78072;SDS011;67281;48.770;11.440;2024-01-15T09:25:28;8.83;;;5.37;;
78072;SDS011;67281;48.770;11.440;2024-01-15T09:27:55;7.50;;;5.00;;
78072;SDS011;67281;48.770;11.440;2024-01-15T09:30:22;9.63;;;4.70;;
78072;SDS011;67281;48.770;11.440;2024-01-15T09:32:49;9.93;;;5.27;;
78072;SDS011;67281;48.770;11.440;2024-01-15T09:35:16;8.73;;;5.20;;
78072;SDS011;67281;48.770;11.440;2024-01-15T09:37:43;7.07;;;4.77;;
78072;SDS011;67281;48.770;11.440;2024-01-15T09:40:14;8.30;;;5.87;;
78072;SDS011;67281;48.770;11.440;2024-01-15T09:42:42;8.77;;;4.73;;
78072;SDS011;67281;48.770;11.440;2024-01-15T09:45:10;10.05;;;5.28;;
78072;SDS011;67281;48.770;11.440;2024-01-15T09:47:38;9.37;;;5.33;;
78072;SDS011;67281;48.770;11.440;2024-01-15T09:50:09;12.47;;;6.00;;
78072;SDS011;67281;48.770;11.440;2024-01-15T09:52:37;12.40;;;5.37;;
78072;SDS011;67281;48.770;11.440;2024-01-15T09:55:05;8.07;;;2.93;;
78072;SDS011;67281;48.770;11.440;2024-01-15T09:57:32;8.37;;;5.70;;
78072;SDS011;67281;48.770;11.440;2024-01-15T10:00:00;9.63;;;5.47;;
78072;SDS011;67281;48.770;11.440;2024-01-15T10:02:30;9.07;;;5.90;;
78072;SDS011;67281;48.770;11.440;2024-01-15T10:04:58;9.10;;;5.63;;
78072;SDS011;67281;48.770;11.440;2024-01-15T10:07:25;7.77;;;4.33;;
78072;SDS011;67281;48.770;11.440;2024-01-15T10:09:52;10.77;;;5.40;;
78072;SDS011;67281;48.770;11.440;2024-01-15T10:12:21;11.33;;;5.70;;
78072;SDS011;67281;48.770;11.440;2024-01-15T10:14:50;8.90;;;5.57;;
78072;SDS011;67281;48.770;11.440;2024-01-15T10:17:17;8.43;;;5.10;;
78072;SDS011;67281;48.770;11.440;2024-01-15T10:19:47;9.67;;;5.50;;
78072;SDS011;67281;48.770;11.440;2024-01-15T10:22:16;11.03;;;6.30;;
78072;SDS011;67281;48.770;11.440;2024-01-15T10:24:45;11.77;;;5.13;;
78072;SDS011;67281;48.770;11.440;2024-01-15T10:27:15;11.50;;;6.13;;
78072;SDS011;67281;48.770;11.440;2024-01-15T10:29:42;9.83;;;5.33;;
78072;SDS011;67281;48.770;11.440;2024-01-15T10:32:10;9.37;;;5.27;;
78072;SDS011;67281;48.770;11.440;2024-01-15T10:34:38;10.43;;;5.53;;
78072;SDS011;67281;48.770;11.440;2024-01-15T10:37:10;7.93;;;4.23;;
78072;SDS011;67281;48.770;11.440;2024-01-15T10:39:37;12.73;;;6.50;;
78072;SDS011;67281;48.770;11.440;2024-01-15T10:42:05;5.53;;;3.33;;
78072;SDS011;67281;48.770;11.440;2024-01-15T10:44:34;8.60;;;4.07;;
78072;SDS011;67281;48.770;11.440;2024-01-15T10:47:01;9.37;;;6.27;;
78072;SDS011;67281;48.770;11.440;2024-01-15T10:49:29;9.93;;;5.77;;
78072;SDS011;67281;48.770;11.440;2024-01-15T10:52:02;12.40;;;5.70;;
78072;SDS011;67281;48.770;11.440;2024-01-15T10:54:30;10.87;;;5.83;;
78072;SDS011;67281;48.770;11.440;2024-01-15T10:56:58;10.47;;;6.53;;
78072;SDS011;67281;48.770;11.440;2024-01-15T10:59:25;10.13;;;6.53;;
78072;SDS011;67281;48.770;11.440;2024-01-15T11:01:52;8.93;;;5.23;;
78072;SDS011;67281;48.770;11.440;2024-01-15T11:04:21;9.53;;;4.90;;
78072;SDS011;67281;48.770;11.440;2024-01-15T11:06:51;4.97;;;3.23;;
78072;SDS011;67281;48.770;11.440;2024-01-15T11:09:21;11.23;;;6.53;;
78072;SDS011;67281;48.770;11.440;2024-01-15T11:11:51;9.60;;;5.77;;
78072;SDS011;67281;48.770;11.440;2024-01-15T11:14:39;10.83;;;6.43;;
78072;SDS011;67281;48.770;11.440;2024-01-15T11:17:10;9.97;;;5.50;;
78072;SDS011;67281;48.770;11.440;2024-01-15T11:19:48;11.27;;;6.47;;
78072;SDS011;67281;48.770;11.440;2024-01-15T11:25:12;10.37;;;5.23;;
78072;SDS011;67281;48.770;11.440;2024-01-15T11:27:40;8.93;;;5.40;;
78072;SDS011;67281;48.770;11.440;2024-01-15T11:30:09;12.03;;;4.90;;
78072;SDS011;67281;48.770;11.440;2024-01-15T11:32:38;11.47;;;6.30;;
78072;SDS011;67281;48.770;11.440;2024-01-15T11:35:09;10.03;;;5.30;;
78072;SDS011;67281;48.770;11.440;2024-01-15T11:40:18;9.47;;;5.33;;
78072;SDS011;67281;48.770;11.440;2024-01-15T11:42:46;8.57;;;4.80;;
78072;SDS011;67281;48.770;11.440;2024-01-15T11:45:23;9.30;;;5.20;;
78072;SDS011;67281;48.770;11.440;2024-01-15T11:48:10;12.67;;;5.83;;
78072;SDS011;67281;48.770;11.440;2024-01-15T11:50:39;10.77;;;4.90;;
78072;SDS011;67281;48.770;11.440;2024-01-15T11:53:27;9.70;;;5.47;;
78072;SDS011;67281;48.770;11.440;2024-01-15T11:56:03;8.77;;;4.77;;
78072;SDS011;67281;48.770;11.440;2024-01-15T11:58:36;9.00;;;4.80;;
78072;SDS011;67281;48.770;11.440;2024-01-15T12:01:04;12.30;;;5.00;;
78072;SDS011;67281;48.770;11.440;2024-01-15T12:03:32;10.40;;;5.03;;
78072;SDS011;67281;48.770;11.440;2024-01-15T12:06:00;11.13;;;5.50;;
78072;SDS011;67281;48.770;11.440;2024-01-15T12:08:28;9.37;;;4.27;;
78072;SDS011;67281;48.770;11.440;2024-01-15T12:10:55;8.17;;;5.40;;
78072;SDS011;67281;48.770;11.440;2024-01-15T12:13:23;8.63;;;5.13;;
78072;SDS011;67281;48.770;11.440;2024-01-15T12:15:50;10.27;;;4.57;;
78072;SDS011;67281;48.770;11.440;2024-01-15T12:18:18;9.83;;;4.67;;
78072;SDS011;67281;48.770;11.440;2024-01-15T12:20:46;6.80;;;3.63;;
78072;SDS011;67281;48.770;11.440;2024-01-15T12:23:14;9.87;;;4.60;;
78072;SDS011;67281;48.770;11.440;2024-01-15T12:25:41;9.57;;;4.47;;
78072;SDS011;67281;48.770;11.440;2024-01-15T12:28:08;10.27;;;4.90;;
78072;SDS011;67281;48.770;11.440;2024-01-15T12:30:36;7.93;;;3.53;;
78072;SDS011;67281;48.770;11.440;2024-01-15T12:33:05;7.97;;;4.63;;
78072;SDS011;67281;48.770;11.440;2024-01-15T12:35:33;7.97;;;3.57;;
78072;SDS011;67281;48.770;11.440;2024-01-15T12:38:01;6.77;;;3.57;;
78072;SDS011;67281;48.770;11.440;2024-01-15T12:40:32;10.17;;;3.83;;
78072;SDS011;67281;48.770;11.440;2024-01-15T12:43:05;8.70;;;4.23;;
78072;SDS011;67281;48.770;11.440;2024-01-15T12:45:33;9.73;;;4.50;;
78072;SDS011;67281;48.770;11.440;2024-01-15T12:48:02;7.37;;;3.53;;
78072;SDS011;67281;48.770;11.440;2024-01-15T12:50:30;8.33;;;4.53;;
78072;SDS011;67281;48.770;11.440;2024-01-15T12:53:00;8.17;;;4.67;;
78072;SDS011;67281;48.770;11.440;2024-01-15T12:55:27;7.93;;;4.90;;
78072;SDS011;67281;48.770;11.440;2024-01-15T12:57:54;5.80;;;3.60;;
78072;SDS011;67281;48.770;11.440;2024-01-15T13:00:22;6.73;;;3.67;;
78072;SDS011;67281;48.770;11.440;2024-01-15T13:02:49;6.77;;;3.43;;
78072;SDS011;67281;48.770;11.440;2024-01-15T13:05:16;8.63;;;3.90;;
78072;SDS011;67281;48.770;11.440;2024-01-15T13:07:45;6.30;;;2.77;;
78072;SDS011;67281;48.770;11.440;2024-01-15T13:10:12;7.23;;;3.67;;
78072;SDS011;67281;48.770;11.440;2024-01-15T13:12:39;8.27;;;4.17;;
78072;SDS011;67281;48.770;11.440;2024-01-15T13:15:07;5.37;;;3.07;;
78072;SDS011;67281;48.770;11.440;2024-01-15T13:17:40;7.63;;;4.13;;
78072;SDS011;67281;48.770;11.440;2024-01-15T13:20:08;9.67;;;4.10;;
78072;SDS011;67281;48.770;11.440;2024-01-15T13:22:36;7.83;;;3.30;;
78072;SDS011;67281;48.770;11.440;2024-01-15T13:25:06;7.27;;;3.43;;
78072;SDS011;67281;48.770;11.440;2024-01-15T13:27:35;6.80;;;3.60;;
78072;SDS011;67281;48.770;11.440;2024-01-15T13:30:03;6.97;;;3.90;;
78072;SDS011;67281;48.770;11.440;2024-01-15T13:32:30;6.80;;;3.77;;
78072;SDS011;67281;48.770;11.440;2024-01-15T13:34:57;6.23;;;3.40;;
78072;SDS011;67281;48.770;11.440;2024-01-15T13:37:24;5.87;;;3.10;;
78072;SDS011;67281;48.770;11.440;2024-01-15T13:39:52;5.83;;;3.20;;
78072;SDS011;67281;48.770;11.440;2024-01-15T13:42:20;6.40;;;4.10;;
78072;SDS011;67281;48.770;11.440;2024-01-15T13:44:50;8.07;;;4.57;;
78072;SDS011;67281;48.770;11.440;2024-01-15T13:47:18;5.23;;;2.90;;
78072;SDS011;67281;48.770;11.440;2024-01-15T13:49:45;7.87;;;4.37;;
78072;SDS011;67281;48.770;11.440;2024-01-15T13:52:12;7.87;;;3.83;;
78072;SDS011;67281;48.770;11.440;2024-01-15T13:54:41;6.67;;;3.50;;
78072;SDS011;67281;48.770;11.440;2024-01-15T13:57:16;8.60;;;5.43;;
78072;SDS011;67281;48.770;11.440;2024-01-15T13:59:44;7.37;;;4.57;;
78072;SDS011;67281;48.770;11.440;2024-01-15T14:02:10;8.23;;;4.53;;
78072;SDS011;67281;48.770;11.440;2024-01-15T14:04:39;7.13;;;4.00;;
78072;SDS011;67281;48.770;11.440;2024-01-15T14:07:06;12.60;;;5.00;;
78072;SDS011;67281;48.770;11.440;2024-01-15T14:09:33;8.37;;;4.63;;
78072;SDS011;67281;48.770;11.440;2024-01-15T14:12:00;7.93;;;4.47;;
78072;SDS011;67281;48.770;11.440;2024-01-15T14:14:27;8.50;;;4.10;;
78072;SDS011;67281;48.770;11.440;2024-01-15T14:16:54;6.87;;;4.40;;
78072;SDS011;67281;48.770;11.440;2024-01-15T14:19:21;10.37;;;4.23;;
78072;SDS011;67281;48.770;11.440;2024-01-15T14:21:48;9.93;;;4.37;;
78072;SDS011;67281;48.770;11.440;2024-01-15T14:24:15;9.00;;;4.00;;
78072;SDS011;67281;48.770;11.440;2024-01-15T14:26:44;6.53;;;4.30;;
78072;SDS011;67281;48.770;11.440;2024-01-15T14:29:11;6.53;;;4.10;;